createdAt,value
2018-09-18T00:02:04.865Z,13.63
2018-09-18T00:04:33.225Z,13.60
2018-09-18T00:07:01.599Z,14.40
2018-09-18T00:09:30.002Z,12.17
2018-09-18T00:11:58.405Z,12.40
2018-09-18T00:14:26.827Z,12.20
2018-09-18T00:16:55.129Z,12.97
2018-09-18T00:19:23.469Z,12.97
2018-09-18T00:21:51.856Z,13.03
2018-09-18T00:24:20.265Z,13.93
2018-09-18T00:26:48.644Z,13.80
2018-09-18T00:29:16.989Z,12.70
2018-09-18T00:31:45.396Z,12.47
2018-09-18T00:34:13.832Z,13.07
2018-09-18T00:36:42.247Z,13.50
2018-09-18T00:39:10.990Z,12.90
2018-09-18T00:41:39.397Z,12.73
2018-09-18T00:44:07.824Z,12.10
2018-09-18T00:46:36.277Z,13.10
2018-09-18T00:49:04.689Z,13.07
2018-09-18T00:51:33.116Z,13.77
2018-09-18T00:54:01.518Z,12.83
2018-09-18T00:56:29.911Z,11.90
2018-09-18T00:58:58.360Z,12.07
2018-09-18T01:01:26.801Z,12.60
2018-09-18T01:03:55.193Z,13.70
2018-09-18T01:06:23.555Z,14.07
2018-09-18T01:08:51.856Z,14.20
2018-09-18T01:11:20.260Z,13.30
2018-09-18T01:13:48.629Z,13.07
2018-09-18T01:16:17.050Z,13.97
2018-09-18T01:18:45.542Z,14.47
2018-09-18T01:21:13.931Z,14.20
2018-09-18T01:23:42.339Z,13.60
2018-09-18T01:26:10.683Z,13.40
2018-09-18T01:28:39.083Z,12.23
2018-09-18T01:31:07.477Z,13.80
2018-09-18T01:33:36.166Z,13.30
2018-09-18T01:36:04.916Z,12.67
2018-09-18T01:38:33.334Z,12.87
2018-09-18T01:41:01.786Z,13.33
2018-09-18T01:43:30.170Z,13.20
2018-09-18T01:45:58.508Z,12.30
2018-09-18T01:48:26.967Z,14.00
2018-09-18T01:50:55.449Z,12.10
2018-09-18T01:53:23.888Z,12.83
2018-09-18T01:55:52.321Z,12.13
2018-09-18T01:58:20.653Z,12.10
2018-09-18T02:00:49.183Z,12.27
2018-09-18T02:03:17.536Z,13.60
2018-09-18T02:05:45.906Z,12.20
2018-09-18T02:08:14.340Z,12.90
2018-09-18T02:10:42.716Z,12.67
2018-09-18T02:13:11.059Z,11.90
2018-09-18T02:15:39.467Z,12.50
2018-09-18T02:18:07.868Z,12.57
2018-09-18T02:20:36.231Z,13.03
2018-09-18T02:23:04.691Z,12.80
2018-09-18T02:25:33.145Z,12.10
2018-09-18T02:28:01.410Z,13.73
2018-09-18T02:30:29.707Z,12.20
2018-09-18T02:32:58.064Z,12.60
2018-09-18T02:35:26.487Z,12.20
2018-09-18T02:37:54.851Z,12.40
2018-09-18T02:40:23.235Z,13.20
2018-09-18T02:42:51.682Z,13.13
2018-09-18T02:45:19.998Z,13.10
2018-09-18T02:47:48.389Z,12.50
2018-09-18T02:50:16.740Z,13.10
2018-09-18T02:52:45.095Z,13.37
2018-09-18T02:55:13.427Z,14.10
2018-09-18T02:57:41.843Z,13.97
2018-09-18T03:00:10.724Z,13.23
2018-09-18T03:02:39.143Z,12.53
2018-09-18T03:05:07.633Z,12.90
2018-09-18T03:07:36.028Z,12.40
2018-09-18T03:10:04.845Z,12.43
2018-09-18T03:12:33.215Z,13.43
2018-09-18T03:15:01.585Z,13.93
2018-09-18T03:17:29.962Z,14.43
2018-09-18T03:19:58.266Z,13.33
2018-09-18T03:22:26.694Z,13.93
2018-09-18T03:24:55.043Z,12.90
2018-09-18T03:27:23.453Z,11.77
2018-09-18T03:29:52.088Z,12.80
2018-09-18T03:32:20.412Z,13.50
2018-09-18T03:34:48.839Z,12.73
2018-09-18T03:37:17.240Z,13.40
2018-09-18T03:39:45.610Z,13.53
2018-09-18T03:42:13.990Z,12.50
2018-09-18T03:44:42.364Z,12.70
2018-09-18T03:47:10.740Z,13.77
2018-09-18T03:49:39.161Z,13.73
2018-09-18T03:52:07.625Z,13.97
2018-09-18T03:54:36.007Z,13.10
2018-09-18T03:57:04.348Z,14.50
2018-09-18T03:59:32.763Z,12.87
2018-09-18T04:02:01.216Z,12.80
2018-09-18T04:04:29.589Z,13.33
2018-09-18T04:06:57.990Z,13.50
2018-09-18T04:09:26.538Z,11.60
2018-09-18T04:11:54.974Z,13.37
2018-09-18T04:14:23.420Z,12.30
2018-09-18T04:16:51.807Z,11.93
2018-09-18T04:19:20.268Z,13.70
2018-09-18T04:21:48.614Z,12.40
2018-09-18T04:24:16.963Z,13.60
2018-09-18T04:26:45.283Z,13.43
2018-09-18T04:29:13.660Z,16.30
2018-09-18T04:31:41.996Z,13.50
2018-09-18T04:34:10.355Z,12.90
2018-09-18T04:36:38.767Z,13.07
2018-09-18T04:39:09.408Z,18.47
2018-09-18T04:41:37.810Z,13.67
2018-09-18T04:44:06.550Z,12.00
2018-09-18T04:46:35.096Z,13.00
2018-09-18T04:49:03.508Z,12.63
2018-09-18T04:51:31.896Z,12.77
2018-09-18T04:54:00.251Z,13.20
2018-09-18T04:56:28.849Z,13.63
2018-09-18T04:58:57.254Z,12.70
2018-09-18T05:01:25.676Z,12.47
2018-09-18T05:03:54.058Z,12.90
2018-09-18T05:06:22.536Z,13.37
2018-09-18T05:08:50.940Z,13.20
2018-09-18T05:11:19.389Z,12.67
2018-09-18T05:13:47.785Z,13.00
2018-09-18T05:16:16.147Z,13.13
2018-09-18T05:18:44.595Z,11.60
2018-09-18T05:21:12.993Z,12.30
2018-09-18T05:23:41.337Z,12.70
2018-09-18T05:26:09.752Z,12.60
2018-09-18T05:28:38.188Z,11.70
2018-09-18T05:31:06.811Z,12.27
2018-09-18T05:33:35.254Z,12.77
2018-09-18T05:36:03.597Z,21.30
2018-09-18T05:38:31.952Z,12.67
2018-09-18T05:41:00.833Z,12.57
2018-09-18T05:43:29.331Z,12.10
2018-09-18T05:45:57.759Z,13.10
2018-09-18T05:48:26.163Z,12.57
2018-09-18T05:50:54.539Z,12.60
2018-09-18T05:53:22.987Z,12.20
2018-09-18T05:55:51.495Z,12.20
2018-09-18T05:58:19.857Z,11.83
2018-09-18T06:00:48.572Z,12.00
2018-09-18T06:03:17.083Z,11.60
2018-09-18T06:05:45.475Z,11.43
2018-09-18T06:08:13.887Z,11.77
2018-09-18T06:10:42.378Z,11.57
2018-09-18T06:13:10.754Z,12.40
2018-09-18T06:15:39.147Z,14.47
2018-09-18T06:18:07.612Z,12.10
2018-09-18T06:20:35.891Z,11.80
2018-09-18T06:23:04.329Z,11.63
2018-09-18T06:25:32.805Z,12.60
2018-09-18T06:28:01.239Z,11.13
2018-09-18T06:30:29.651Z,12.43
2018-09-18T06:32:58.039Z,11.80
2018-09-18T06:35:26.373Z,11.83
2018-09-18T06:37:54.784Z,11.70
2018-09-18T06:40:23.115Z,11.83
2018-09-18T06:42:52.496Z,10.37
2018-09-18T06:45:20.922Z,11.00
2018-09-18T06:47:49.413Z,10.40
2018-09-18T06:50:17.853Z,11.30
2018-09-18T06:52:46.231Z,11.40
2018-09-18T06:55:14.631Z,10.47
2018-09-18T06:57:42.959Z,9.97
2018-09-18T07:00:11.447Z,11.00
2018-09-18T07:02:39.811Z,9.87
2018-09-18T07:05:08.238Z,10.00
2018-09-18T07:07:36.614Z,10.47
2018-09-18T07:10:08.203Z,9.80
2018-09-18T07:12:36.604Z,9.70
2018-09-18T07:15:05.364Z,10.00
2018-09-18T07:17:33.772Z,9.90
2018-09-18T07:20:02.181Z,9.03
2018-09-18T07:22:30.637Z,10.33
2018-09-18T07:24:59.013Z,9.20
2018-09-18T07:27:28.123Z,9.40
2018-09-18T07:29:56.527Z,8.97
2018-09-18T07:32:24.911Z,10.03
2018-09-18T07:34:53.275Z,9.30
2018-09-18T07:37:21.654Z,9.13
2018-09-18T07:39:50.026Z,9.00
2018-09-18T07:42:18.518Z,8.03
2018-09-18T07:44:46.936Z,8.83
2018-09-18T07:47:15.296Z,8.90
2018-09-18T07:49:43.628Z,8.90
2018-09-18T07:52:12.126Z,9.00
2018-09-18T07:54:40.566Z,9.27
2018-09-18T07:57:08.918Z,9.50
2018-09-18T07:59:37.203Z,8.40
2018-09-18T08:02:05.914Z,8.80
2018-09-18T08:04:34.323Z,9.43
2018-09-18T08:07:02.891Z,8.30
2018-09-18T08:09:31.261Z,9.07
2018-09-18T08:11:59.687Z,8.47
2018-09-18T08:14:28.074Z,7.97
2018-09-18T08:16:56.383Z,8.80
2018-09-18T08:19:24.789Z,8.50
2018-09-18T08:21:53.201Z,8.10
2018-09-18T08:24:21.567Z,7.93
2018-09-18T08:26:49.953Z,8.40
2018-09-18T08:29:18.264Z,7.63
2018-09-18T08:31:46.750Z,7.43
2018-09-18T08:34:15.191Z,7.50
2018-09-18T08:36:43.491Z,7.63
2018-09-18T08:39:11.889Z,8.60
2018-09-18T08:41:40.349Z,8.10
2018-09-18T08:44:08.671Z,7.80
2018-09-18T08:46:37.142Z,8.17
2018-09-18T08:49:05.576Z,7.70
2018-09-18T08:51:34.016Z,7.57
2018-09-18T08:54:02.369Z,7.80
2018-09-18T08:56:30.673Z,7.67
2018-09-18T08:58:59.064Z,7.43
2018-09-18T09:01:27.440Z,7.80
2018-09-18T09:03:55.832Z,7.10
2018-09-18T09:06:24.233Z,8.20
2018-09-18T09:08:52.792Z,7.37
2018-09-18T09:11:21.055Z,7.23
2018-09-18T09:13:49.571Z,7.50
2018-09-18T09:16:17.952Z,7.57
2018-09-18T09:18:46.363Z,7.20
2018-09-18T09:21:14.779Z,6.80
2018-09-18T09:23:43.115Z,7.30
2018-09-18T09:26:11.436Z,6.87
2018-09-18T09:28:39.813Z,6.30
2018-09-18T09:31:08.237Z,6.47
2018-09-18T09:33:36.645Z,7.40
2018-09-18T09:36:05.053Z,7.60
2018-09-18T09:38:33.406Z,8.10
2018-09-18T09:41:01.787Z,6.87
2018-09-18T09:43:30.167Z,6.90
2018-09-18T09:45:58.535Z,7.13
2018-09-18T09:48:29.317Z,7.50
2018-09-18T09:50:57.761Z,6.93
2018-09-18T09:53:26.139Z,7.60
2018-09-18T09:55:54.588Z,6.63
2018-09-18T09:58:23.064Z,7.70
2018-09-18T10:00:56.816Z,6.80
2018-09-18T10:03:25.263Z,7.10
2018-09-18T10:05:53.627Z,7.10
2018-09-18T10:08:22.004Z,7.50
2018-09-18T10:10:50.541Z,7.00
2018-09-18T10:13:18.732Z,6.77
2018-09-18T10:15:47.170Z,8.63
2018-09-18T10:18:15.670Z,7.73
2018-09-18T10:20:43.996Z,7.63
2018-09-18T10:23:12.407Z,6.97
2018-09-18T10:25:40.785Z,7.40
2018-09-18T10:28:09.208Z,6.90
2018-09-18T10:30:37.562Z,7.13
2018-09-18T10:33:06.147Z,7.50
2018-09-18T10:35:34.685Z,6.63
2018-09-18T10:38:03.192Z,7.00
2018-09-18T10:40:31.481Z,8.00
2018-09-18T10:42:59.968Z,7.47
2018-09-18T10:45:28.361Z,7.23
2018-09-18T10:47:56.743Z,6.80
2018-09-18T10:50:25.166Z,8.00
2018-09-18T10:52:53.565Z,6.53
2018-09-18T10:55:22.045Z,6.67
2018-09-18T10:57:50.475Z,7.27
2018-09-18T11:00:18.821Z,7.80
2018-09-18T11:02:47.276Z,7.23
2018-09-18T11:05:15.620Z,6.97
2018-09-18T11:07:44.131Z,7.30
2018-09-18T11:10:12.421Z,7.20
2018-09-18T11:12:40.873Z,5.93
2018-09-18T11:15:09.323Z,6.80
2018-09-18T11:17:37.693Z,7.23
2018-09-18T11:20:06.116Z,6.67
2018-09-18T11:22:34.484Z,6.80
2018-09-18T11:25:03.005Z,6.73
2018-09-18T11:27:31.480Z,7.07
2018-09-18T11:29:59.854Z,6.50
2018-09-18T11:32:28.277Z,6.40
2018-09-18T11:34:56.831Z,6.37
2018-09-18T11:37:25.486Z,7.73
2018-09-18T11:39:53.821Z,6.10
2018-09-18T11:42:22.183Z,5.70
2018-09-18T11:44:50.620Z,5.90
2018-09-18T11:47:19.040Z,5.97
2018-09-18T11:49:47.360Z,6.30
2018-09-18T11:52:15.865Z,5.80
2018-09-18T11:54:44.219Z,6.57
2018-09-18T11:57:12.600Z,5.60
2018-09-18T11:59:40.913Z,6.20
2018-09-18T12:02:09.335Z,5.20
2018-09-18T12:04:37.708Z,6.27
2018-09-18T12:07:06.306Z,6.37
2018-09-18T12:09:34.928Z,6.10
2018-09-18T12:12:03.369Z,6.30
2018-09-18T12:14:31.738Z,6.00
2018-09-18T12:17:00.142Z,6.17
2018-09-18T12:19:28.549Z,7.00
2018-09-18T12:21:56.910Z,5.80
2018-09-18T12:24:25.250Z,6.03
2018-09-18T12:26:53.634Z,6.27
2018-09-18T12:29:22.344Z,6.67
2018-09-18T12:31:50.763Z,5.70
2018-09-18T12:34:19.151Z,6.43
2018-09-18T12:36:47.513Z,5.63
2018-09-18T12:39:15.864Z,5.83
2018-09-18T12:41:44.298Z,5.70
2018-09-18T12:44:12.615Z,6.00
2018-09-18T12:46:41.020Z,6.67
2018-09-18T12:49:09.442Z,5.70
2018-09-18T12:51:37.760Z,6.20
2018-09-18T12:54:06.418Z,6.17
2018-09-18T12:56:34.769Z,5.60
2018-09-18T12:59:03.122Z,6.20
2018-09-18T13:01:31.651Z,6.40
2018-09-18T13:04:00.066Z,5.90
2018-09-18T13:06:28.422Z,6.13
2018-09-18T13:08:57.082Z,5.73
2018-09-18T13:11:25.496Z,6.20
2018-09-18T13:13:53.918Z,5.80
2018-09-18T13:16:22.342Z,6.47
2018-09-18T13:18:50.725Z,6.60
2018-09-18T13:21:19.023Z,6.57
2018-09-18T13:23:47.391Z,5.90
2018-09-18T13:26:15.823Z,6.30
2018-09-18T13:28:44.235Z,6.20
2018-09-18T13:31:12.662Z,5.70
2018-09-18T13:33:40.998Z,6.40
2018-09-18T13:36:09.377Z,5.83
2018-09-18T13:38:37.789Z,5.93
2018-09-18T13:41:06.271Z,5.63
2018-09-18T13:43:34.570Z,5.33
2018-09-18T13:46:02.875Z,5.40
2018-09-18T13:48:31.161Z,6.00
2018-09-18T13:50:59.534Z,5.50
2018-09-18T13:53:27.881Z,5.87
2018-09-18T13:55:56.714Z,5.83
2018-09-18T13:58:25.143Z,5.10
2018-09-18T14:00:53.549Z,6.00
2018-09-18T14:03:21.977Z,4.97
2018-09-18T14:05:50.540Z,5.60
2018-09-18T14:08:19.999Z,5.63
2018-09-18T14:10:51.412Z,5.50
2018-09-18T14:13:19.783Z,5.57
2018-09-18T14:15:48.255Z,5.43
2018-09-18T14:18:16.619Z,6.13
2018-09-18T14:20:45.019Z,5.70
2018-09-18T14:23:13.355Z,6.13
2018-09-18T14:25:41.739Z,5.83
2018-09-18T14:28:10.201Z,5.60
2018-09-18T14:30:38.681Z,5.57
2018-09-18T14:33:07.424Z,5.33
2018-09-18T14:35:35.815Z,5.57
2018-09-18T14:38:04.244Z,5.70
2018-09-18T14:40:32.697Z,6.77
2018-09-18T14:43:01.284Z,5.87
2018-09-18T14:45:29.718Z,6.13
2018-09-18T14:47:58.139Z,6.07
2018-09-18T14:50:26.479Z,6.60
2018-09-18T14:52:54.926Z,5.80
2018-09-18T14:55:23.311Z,6.50
2018-09-18T14:57:51.865Z,5.73
2018-09-18T15:00:20.218Z,6.20
2018-09-18T15:02:48.565Z,6.97
2018-09-18T15:05:17.031Z,7.17
2018-09-18T15:07:45.400Z,6.17
2018-09-18T15:10:13.779Z,7.27
2018-09-18T15:12:42.147Z,5.90
2018-09-18T15:15:10.500Z,5.93
2018-09-18T15:17:38.870Z,7.43
2018-09-18T15:20:07.331Z,7.07
2018-09-18T15:22:35.727Z,6.80
2018-09-18T15:25:04.223Z,6.20
2018-09-18T15:27:32.806Z,6.70
2018-09-18T15:30:01.291Z,7.07
2018-09-18T15:32:29.652Z,6.83
2018-09-18T15:34:58.061Z,6.40
2018-09-18T15:37:26.480Z,6.50
2018-09-18T15:39:54.823Z,6.53
2018-09-18T15:42:23.194Z,7.90
2018-09-18T15:44:51.594Z,6.97
2018-09-18T15:47:20.066Z,7.20
2018-09-18T15:49:48.538Z,7.03
2018-09-18T15:52:16.881Z,8.30
2018-09-18T15:54:45.283Z,7.07
2018-09-18T15:57:13.933Z,7.60
2018-09-18T15:59:42.349Z,8.50
2018-09-18T16:02:11.019Z,7.60
2018-09-18T16:04:39.601Z,8.10
2018-09-18T16:07:08.094Z,7.80
2018-09-18T16:09:36.477Z,6.07
2018-09-18T16:12:04.851Z,6.40
2018-09-18T16:14:33.295Z,6.80
2018-09-18T16:17:01.743Z,6.60
2018-09-18T16:19:30.075Z,5.93
2018-09-18T16:21:58.428Z,5.60
2018-09-18T16:24:26.835Z,5.03
2018-09-18T16:26:55.223Z,5.43
2018-09-18T16:29:23.587Z,6.07
2018-09-18T16:31:52.077Z,6.20
2018-09-18T16:34:20.873Z,5.50
2018-09-18T16:36:49.360Z,6.43
2018-09-18T16:39:17.753Z,6.33
2018-09-18T16:41:46.177Z,6.57
2018-09-18T16:44:14.602Z,6.10
2018-09-18T16:46:43.085Z,6.50
2018-09-18T16:49:11.476Z,6.80
2018-09-18T16:51:39.873Z,7.40
2018-09-18T16:54:08.243Z,6.07
2018-09-18T16:56:36.728Z,10.10
2018-09-18T16:59:05.160Z,11.60
2018-09-18T17:01:33.652Z,9.37
2018-09-18T17:04:02.016Z,5.57
2018-09-18T17:06:30.491Z,6.00
2018-09-18T17:08:58.902Z,6.43
2018-09-18T17:11:27.203Z,5.40
2018-09-18T17:13:55.637Z,5.03
2018-09-18T17:16:24.014Z,5.23
2018-09-18T17:18:52.352Z,4.83
2018-09-18T17:21:20.724Z,4.00
2018-09-18T17:23:49.189Z,4.03
2018-09-18T17:26:17.633Z,4.40
2018-09-18T17:28:46.337Z,4.13
2018-09-18T17:31:14.468Z,4.10
2018-09-18T17:33:43.187Z,3.43
2018-09-18T17:36:11.613Z,6.20
2018-09-18T17:38:40.043Z,3.80
2018-09-18T17:41:08.865Z,3.93
2018-09-18T17:43:37.268Z,4.67
2018-09-18T17:46:05.862Z,3.67
2018-09-18T17:48:34.288Z,3.20
2018-09-18T17:51:02.650Z,3.30
2018-09-18T17:53:31.044Z,3.20
2018-09-18T17:55:59.493Z,2.90
2018-09-18T17:58:29.015Z,2.80
2018-09-18T18:00:57.443Z,2.80
2018-09-18T18:03:25.869Z,2.80
2018-09-18T18:05:54.275Z,2.50
2018-09-18T18:08:22.745Z,2.77
2018-09-18T18:10:51.170Z,3.50
2018-09-18T18:13:19.548Z,3.57
2018-09-18T18:15:48.145Z,3.37
2018-09-18T18:18:16.506Z,3.50
2018-09-18T18:20:45.118Z,2.60
2018-09-18T18:23:13.353Z,2.60
2018-09-18T18:25:41.660Z,2.83
2018-09-18T18:28:10.040Z,3.07
2018-09-18T18:30:38.419Z,2.73
2018-09-18T18:33:06.753Z,2.70
2018-09-18T18:35:35.240Z,3.10
2018-09-18T18:38:03.580Z,3.57
2018-09-18T18:40:31.991Z,3.20
2018-09-18T18:43:01.822Z,2.70
2018-09-18T18:45:30.212Z,3.07
2018-09-18T18:47:58.812Z,3.17
2018-09-18T18:50:26.991Z,2.43
2018-09-18T18:52:55.783Z,2.57
2018-09-18T18:55:24.232Z,3.00
2018-09-18T18:57:52.687Z,3.20
2018-09-18T19:00:21.137Z,2.60
2018-09-18T19:02:49.602Z,2.80
2018-09-18T19:05:18.051Z,2.93
2018-09-18T19:07:46.479Z,2.70
2018-09-18T19:10:14.976Z,2.63
2018-09-18T19:12:43.445Z,2.80
2018-09-18T19:15:11.849Z,2.23
2018-09-18T19:17:40.295Z,2.73
2018-09-18T19:20:08.787Z,2.80
2018-09-18T19:22:37.283Z,2.63
2018-09-18T19:25:05.802Z,2.60
2018-09-18T19:27:34.243Z,2.60
2018-09-18T19:30:02.661Z,2.90
2018-09-18T19:32:31.090Z,2.80
2018-09-18T19:34:59.589Z,3.10
2018-09-18T19:37:27.954Z,2.43
2018-09-18T19:39:56.339Z,2.40
2018-09-18T19:42:24.724Z,2.50
2018-09-18T19:44:53.127Z,2.90
2018-09-18T19:47:21.515Z,2.60
2018-09-18T19:49:49.951Z,2.30
2018-09-18T19:52:18.496Z,2.13
2018-09-18T19:54:46.801Z,2.50
2018-09-18T19:57:15.248Z,2.50
2018-09-18T19:59:43.638Z,2.17
2018-09-18T20:02:12.032Z,1.93
2018-09-18T20:04:40.552Z,2.20
2018-09-18T20:07:09.068Z,2.00
2018-09-18T20:09:37.648Z,4.33
2018-09-18T20:12:06.111Z,2.13
2018-09-18T20:14:34.502Z,1.53
2018-09-18T20:17:02.942Z,1.80
2018-09-18T20:19:31.273Z,1.80
2018-09-18T20:21:59.621Z,1.60
2018-09-18T20:24:28.265Z,1.80
2018-09-18T20:26:59.607Z,2.07
2018-09-18T20:29:28.107Z,1.70
2018-09-18T20:31:56.579Z,1.93
2018-09-18T20:34:24.901Z,2.00
2018-09-18T20:36:53.306Z,2.17
2018-09-18T20:39:21.701Z,2.93
2018-09-18T20:41:50.220Z,1.57
2018-09-18T20:44:18.566Z,2.10
2018-09-18T20:46:46.959Z,1.73
2018-09-18T20:49:15.299Z,1.70
2018-09-18T20:51:43.731Z,1.40
2018-09-18T20:54:12.194Z,1.83
2018-09-18T20:56:40.529Z,1.80
2018-09-18T20:59:09.725Z,2.37
2018-09-18T21:01:38.116Z,1.30
2018-09-18T21:04:06.635Z,2.10
2018-09-18T21:06:35.074Z,3.07
2018-09-18T21:09:04.357Z,2.10
2018-09-18T21:11:32.749Z,1.80
2018-09-18T21:14:01.174Z,1.60
2018-09-18T21:16:29.582Z,1.40
2018-09-18T21:18:57.985Z,1.43
2018-09-18T21:21:26.439Z,1.33
2018-09-18T21:23:54.823Z,1.40
2018-09-18T21:26:23.241Z,1.70
2018-09-18T21:28:51.660Z,2.20
2018-09-18T21:31:20.126Z,1.87
2018-09-18T21:33:48.524Z,2.10
2018-09-18T21:36:16.923Z,2.47
2018-09-18T21:38:45.327Z,1.60
2018-09-18T21:41:13.737Z,1.53
2018-09-18T21:43:42.169Z,1.73
2018-09-18T21:46:10.637Z,1.73
2018-09-18T21:48:38.957Z,1.83
2018-09-18T21:51:07.429Z,1.70
2018-09-18T21:53:35.742Z,1.40
2018-09-18T21:56:04.117Z,1.90
2018-09-18T21:58:32.439Z,1.60
2018-09-18T22:01:06.032Z,1.60
2018-09-18T22:03:34.896Z,1.63
2018-09-18T22:06:03.577Z,2.97
2018-09-18T22:08:31.935Z,2.23
2018-09-18T22:11:00.202Z,1.80
2018-09-18T22:13:28.512Z,2.10
2018-09-18T22:15:56.871Z,1.83
2018-09-18T22:18:25.248Z,2.47
2018-09-18T22:20:53.610Z,2.17
2018-09-18T22:23:22.035Z,1.60
2018-09-18T22:25:50.396Z,2.30
2018-09-18T22:28:18.936Z,1.70
2018-09-18T22:30:47.409Z,2.80
2018-09-18T22:33:15.757Z,3.10
2018-09-18T22:35:44.116Z,1.60
2018-09-18T22:38:12.687Z,1.80
2018-09-18T22:40:41.029Z,1.80
2018-09-18T22:43:09.546Z,2.10
2018-09-18T22:45:37.862Z,1.60
2018-09-18T22:48:06.242Z,2.00
2018-09-18T22:50:34.708Z,1.67
2018-09-18T22:53:03.161Z,2.40
2018-09-18T22:55:31.630Z,1.60
2018-09-18T22:58:00.030Z,2.57
2018-09-18T23:00:28.584Z,1.77
2018-09-18T23:02:57.013Z,1.70
2018-09-18T23:05:25.438Z,1.93
2018-09-18T23:07:53.745Z,1.70
2018-09-18T23:10:22.249Z,1.60
2018-09-18T23:12:50.628Z,1.90
2018-09-18T23:15:19.113Z,1.60
2018-09-18T23:17:47.443Z,1.70
2018-09-18T23:20:15.802Z,1.83
2018-09-18T23:22:44.208Z,1.80
2018-09-18T23:25:12.608Z,2.00
2018-09-18T23:27:40.909Z,1.83
2018-09-18T23:30:09.303Z,1.90
2018-09-18T23:32:37.664Z,1.83
2018-09-18T23:35:06.090Z,1.90
2018-09-18T23:37:34.414Z,2.40
2018-09-18T23:40:02.785Z,2.40
2018-09-18T23:42:31.065Z,2.17
2018-09-18T23:44:59.449Z,2.17
2018-09-18T23:47:27.849Z,2.40
2018-09-18T23:49:56.221Z,1.90
2018-09-18T23:52:24.623Z,2.40
2018-09-18T23:54:53.047Z,2.23
2018-09-18T23:57:21.394Z,2.50
2018-09-18T23:59:49.760Z,2.10
